createdAt,value
2023-02-11T00:02:40.260Z,100.00
2023-02-11T00:05:42.797Z,100.00
2023-02-11T00:08:45.296Z,100.00
2023-02-11T00:11:48.169Z,100.00
2023-02-11T00:14:50.720Z,100.00
2023-02-11T00:17:53.387Z,100.00
2023-02-11T00:20:55.762Z,100.00
2023-02-11T00:23:59.946Z,100.00
2023-02-11T00:27:02.624Z,100.00
2023-02-11T00:30:05.638Z,100.00
2023-02-11T00:33:08.118Z,100.00
2023-02-11T00:36:15.040Z,100.00
2023-02-11T00:39:17.364Z,100.00
2023-02-11T00:42:20.037Z,100.00
2023-02-11T00:45:22.346Z,100.00
2023-02-11T00:48:24.978Z,100.00
2023-02-11T00:51:28.209Z,100.00
2023-02-11T00:54:31.631Z,100.00
2023-02-11T00:57:33.937Z,100.00
2023-02-11T01:00:36.669Z,100.00
2023-02-11T01:03:39.174Z,100.00
2023-02-11T01:06:41.930Z,100.00
2023-02-11T01:09:44.491Z,100.00
2023-02-11T01:12:47.256Z,100.00
2023-02-11T01:15:50.181Z,100.00
2023-02-11T01:18:53.001Z,100.00
2023-02-11T01:21:55.389Z,100.00
2023-02-11T01:24:58.073Z,100.00
2023-02-11T01:28:00.493Z,100.00
2023-02-11T01:31:05.079Z,100.00
2023-02-11T01:34:08.150Z,100.00
2023-02-11T01:37:12.330Z,100.00
2023-02-11T01:40:15.777Z,100.00
2023-02-11T01:43:18.945Z,100.00
2023-02-11T01:46:21.339Z,100.00
2023-02-11T01:49:29.279Z,100.00
2023-02-11T01:52:31.638Z,100.00
2023-02-11T01:55:52.917Z,100.00
2023-02-11T01:58:58.071Z,100.00
2023-02-11T02:02:04.673Z,100.00
2023-02-11T02:05:16.476Z,100.00
2023-02-11T02:08:37.736Z,100.00
2023-02-11T02:11:40.390Z,100.00
2023-02-11T02:14:42.935Z,100.00
2023-02-11T02:18:10.753Z,100.00
2023-02-11T02:21:13.212Z,100.00
2023-02-11T02:24:28.120Z,100.00
2023-02-11T02:27:42.706Z,100.00
2023-02-11T02:31:00.396Z,100.00
2023-02-11T02:34:06.700Z,100.00
2023-02-11T02:37:30.689Z,100.00
2023-02-11T02:40:40.143Z,100.00
2023-02-11T02:43:44.845Z,100.00
2023-02-11T02:46:47.326Z,100.00
2023-02-11T02:49:50.040Z,100.00
2023-02-11T02:53:12.698Z,100.00
2023-02-11T02:56:39.545Z,100.00
2023-02-11T02:59:41.858Z,100.00
2023-02-11T03:02:44.504Z,100.00
2023-02-11T03:06:01.628Z,100.00
2023-02-11T03:09:11.921Z,100.00
2023-02-11T03:12:15.624Z,100.00
2023-02-11T03:15:19.847Z,100.00
2023-02-11T03:18:24.675Z,100.00
2023-02-11T03:21:28.386Z,100.00
2023-02-11T03:24:35.392Z,100.00
2023-02-11T03:27:37.952Z,100.00
2023-02-11T03:30:54.280Z,100.00
2023-02-11T03:34:15.804Z,100.00
2023-02-11T03:37:21.749Z,100.00
2023-02-11T03:40:29.680Z,100.00
2023-02-11T03:43:34.649Z,100.00
2023-02-11T03:46:39.325Z,100.00
2023-02-11T03:49:43.316Z,100.00
2023-02-11T03:52:46.879Z,100.00
2023-02-11T03:55:50.919Z,100.00
2023-02-11T03:58:53.854Z,100.00
2023-02-11T04:01:56.273Z,100.00
2023-02-11T04:04:59.127Z,100.00
2023-02-11T04:08:01.791Z,100.00
2023-02-11T04:11:04.675Z,100.00
2023-02-11T04:14:07.200Z,100.00
2023-02-11T04:17:10.205Z,100.00
2023-02-11T04:20:13.063Z,100.00
2023-02-11T04:23:15.646Z,100.00
2023-02-11T04:26:17.950Z,100.00
2023-02-11T04:29:20.779Z,100.00
2023-02-11T04:32:23.345Z,100.00
2023-02-11T04:35:25.932Z,100.00
2023-02-11T04:38:28.342Z,100.00
2023-02-11T04:41:31.017Z,100.00
2023-02-11T04:44:33.322Z,100.00
2023-02-11T04:47:36.251Z,100.00
2023-02-11T04:50:38.635Z,100.00
2023-02-11T04:53:41.513Z,100.00
2023-02-11T04:56:44.155Z,100.00
2023-02-11T04:59:46.771Z,100.00
2023-02-11T05:02:49.125Z,100.00
2023-02-11T05:05:52.076Z,100.00
2023-02-11T05:08:54.722Z,100.00
2023-02-11T05:11:57.470Z,100.00
2023-02-11T05:14:59.811Z,100.00
2023-02-11T05:18:02.432Z,100.00
2023-02-11T05:21:23.168Z,100.00
2023-02-11T05:24:25.826Z,100.00
2023-02-11T05:27:28.310Z,100.00
2023-02-11T05:30:31.699Z,100.00
2023-02-11T05:33:34.064Z,100.00
2023-02-11T05:36:36.714Z,100.00
2023-02-11T05:39:39.152Z,100.00
2023-02-11T05:42:44.697Z,100.00
2023-02-11T05:45:47.110Z,100.00
2023-02-11T05:48:49.863Z,100.00
2023-02-11T05:51:52.290Z,100.00
2023-02-11T05:54:54.925Z,100.00
2023-02-11T05:57:57.294Z,100.00
2023-02-11T06:00:59.854Z,100.00
2023-02-11T06:04:02.499Z,100.00
2023-02-11T06:07:04.995Z,100.00
2023-02-11T06:10:08.177Z,100.00
2023-02-11T06:13:10.477Z,100.00
2023-02-11T06:16:13.130Z,100.00
2023-02-11T06:19:15.825Z,100.00
2023-02-11T06:22:18.526Z,100.00
2023-02-11T06:25:20.805Z,100.00
2023-02-11T06:28:23.545Z,100.00
2023-02-11T06:31:25.986Z,100.00
2023-02-11T06:34:28.629Z,100.00
2023-02-11T06:37:31.085Z,100.00
2023-02-11T06:40:33.774Z,100.00
2023-02-11T06:43:36.060Z,100.00
2023-02-11T06:46:38.704Z,100.00
2023-02-11T06:49:41.397Z,100.00
2023-02-11T06:52:44.064Z,100.00
2023-02-11T06:55:46.393Z,100.00
2023-02-11T06:58:52.375Z,100.00
2023-02-11T07:01:55.291Z,100.00
2023-02-11T07:04:58.017Z,100.00
2023-02-11T07:08:01.282Z,100.00
2023-02-11T07:11:11.273Z,100.00
2023-02-11T07:14:13.795Z,100.00
2023-02-11T07:17:16.402Z,100.00
2023-02-11T07:20:18.806Z,100.00
2023-02-11T07:23:21.490Z,100.00
2023-02-11T07:26:25.736Z,100.00
2023-02-11T07:29:28.446Z,95.15
2023-02-11T07:32:31.107Z,91.02
2023-02-11T07:35:33.687Z,86.94
2023-02-11T07:38:36.305Z,82.37
2023-02-11T07:41:38.976Z,78.90
2023-02-11T07:44:41.374Z,75.48
2023-02-11T07:47:43.988Z,74.79
2023-02-11T07:50:46.449Z,79.11
2023-02-11T07:53:49.664Z,82.43
2023-02-11T07:56:51.908Z,82.91
2023-02-11T07:59:54.545Z,82.64
2023-02-11T08:02:57.769Z,83.44
2023-02-11T08:06:07.101Z,82.72
2023-02-11T08:09:13.928Z,83.04
2023-02-11T08:12:16.838Z,82.18
2023-02-11T08:15:19.321Z,81.83
2023-02-11T08:18:21.947Z,81.53
2023-02-11T08:21:25.052Z,79.39
2023-02-11T08:24:27.721Z,79.26
2023-02-11T08:27:30.158Z,77.94
2023-02-11T08:30:32.885Z,78.86
2023-02-11T08:33:35.554Z,79.08
2023-02-11T08:36:38.977Z,79.13
2023-02-11T08:39:41.376Z,78.67
2023-02-11T08:42:43.970Z,79.70
2023-02-11T08:45:46.394Z,78.09
2023-02-11T08:48:49.387Z,76.38
2023-02-11T08:51:51.887Z,75.24
2023-02-11T08:54:54.866Z,74.11
2023-02-11T08:57:57.176Z,72.63
2023-02-11T09:01:00.276Z,70.41
2023-02-11T09:04:02.949Z,70.02
2023-02-11T09:07:05.949Z,68.69
2023-02-11T09:10:08.968Z,69.59
2023-02-11T09:13:11.729Z,69.72
2023-02-11T09:16:17.618Z,67.97
2023-02-11T09:19:20.383Z,67.37
2023-02-11T09:22:22.751Z,66.48
2023-02-11T09:25:25.897Z,65.30
2023-02-11T09:28:28.305Z,64.90
2023-02-11T09:31:32.568Z,61.93
2023-02-11T09:34:35.163Z,58.19
2023-02-11T09:37:37.821Z,55.33
2023-02-11T09:40:42.791Z,53.43
2023-02-11T09:43:48.125Z,52.31
2023-02-11T09:46:54.932Z,52.33
2023-02-11T09:50:06.218Z,51.55
2023-02-11T09:53:20.958Z,50.72
2023-02-11T09:56:24.470Z,50.97
2023-02-11T09:59:26.762Z,50.62
2023-02-11T10:02:40.200Z,49.83
2023-02-11T10:05:59.729Z,50.22
2023-02-11T10:09:12.693Z,50.20
2023-02-11T10:12:24.402Z,49.98
2023-02-11T10:15:45.378Z,50.93
2023-02-11T10:18:48.788Z,51.39
2023-02-11T10:22:06.861Z,51.88
2023-02-11T10:25:18.895Z,51.65
2023-02-11T10:28:24.706Z,51.69
2023-02-11T10:31:36.135Z,51.69
2023-02-11T10:34:41.115Z,52.09
2023-02-11T10:37:44.683Z,51.50
2023-02-11T10:40:47.013Z,51.30
2023-02-11T10:43:50.549Z,51.07
2023-02-11T10:46:54.576Z,52.01
2023-02-11T10:50:03.305Z,52.23
2023-02-11T10:53:11.516Z,51.82
2023-02-11T10:56:25.909Z,50.29
2023-02-11T10:59:30.320Z,48.55
2023-02-11T11:02:36.167Z,49.80
2023-02-11T11:05:51.767Z,49.71
2023-02-11T11:08:54.404Z,49.64
2023-02-11T11:11:56.821Z,49.21
2023-02-11T11:15:01.192Z,49.51
2023-02-11T11:18:22.598Z,49.24
2023-02-11T11:21:33.361Z,49.70
2023-02-11T11:24:44.863Z,50.68
2023-02-11T11:27:51.359Z,50.95
2023-02-11T11:30:55.477Z,51.98
2023-02-11T11:33:59.394Z,52.35
2023-02-11T11:37:10.413Z,53.14
2023-02-11T11:40:13.446Z,52.48
2023-02-11T11:43:23.107Z,50.76
2023-02-11T11:46:30.655Z,49.34
2023-02-11T11:49:35.792Z,49.04
2023-02-11T11:52:41.514Z,48.71
2023-02-11T11:55:45.932Z,47.53
2023-02-11T11:58:50.308Z,47.46
2023-02-11T12:01:58.933Z,46.11
2023-02-11T12:05:08.905Z,44.97
2023-02-11T12:08:29.981Z,44.73
2023-02-11T12:11:39.194Z,44.97
2023-02-11T12:14:41.557Z,44.95
2023-02-11T12:17:44.076Z,45.32
2023-02-11T12:20:46.561Z,44.86
2023-02-11T12:24:07.859Z,43.66
2023-02-11T12:27:14.250Z,43.47
2023-02-11T12:30:32.090Z,43.99
2023-02-11T12:33:49.846Z,43.77
2023-02-11T12:36:55.812Z,43.51
2023-02-11T12:40:13.566Z,42.89
2023-02-11T12:43:33.113Z,42.90
2023-02-11T12:46:43.219Z,42.76
2023-02-11T12:50:02.389Z,43.64
2023-02-11T12:53:04.738Z,42.97
2023-02-11T12:56:30.815Z,41.71
2023-02-11T12:59:56.623Z,41.95
2023-02-11T13:03:12.551Z,41.59
2023-02-11T13:06:18.506Z,42.26
2023-02-11T13:09:24.650Z,42.36
2023-02-11T13:12:47.853Z,42.25
2023-02-11T13:16:11.146Z,41.10
2023-02-11T13:19:13.447Z,40.15
2023-02-11T13:22:22.182Z,40.27
2023-02-11T13:25:30.678Z,40.05
2023-02-11T13:28:44.014Z,40.11
2023-02-11T13:32:05.071Z,40.36
2023-02-11T13:35:26.788Z,40.17
2023-02-11T13:38:31.242Z,40.23
2023-02-11T13:41:36.737Z,40.87
2023-02-11T13:44:39.365Z,40.43
2023-02-11T13:47:42.402Z,40.82
2023-02-11T13:50:53.294Z,41.04
2023-02-11T13:53:57.621Z,41.64
2023-02-11T13:57:32.725Z,41.21
2023-02-11T14:00:35.411Z,41.55
2023-02-11T14:03:58.084Z,41.82
2023-02-11T14:07:37.678Z,41.87
2023-02-11T14:10:43.353Z,41.63
2023-02-11T14:13:49.388Z,42.92
2023-02-11T14:16:58.425Z,41.49
2023-02-11T14:20:02.964Z,42.12
2023-02-11T14:23:06.348Z,42.17
2023-02-11T14:26:20.170Z,43.35
2023-02-11T14:29:35.794Z,41.86
2023-02-11T14:32:53.530Z,42.14
2023-02-11T14:36:16.460Z,42.22
2023-02-11T14:39:18.990Z,42.75
2023-02-11T14:42:25.453Z,42.88
2023-02-11T14:45:28.772Z,43.14
2023-02-11T14:48:35.201Z,43.76
2023-02-11T14:51:41.232Z,43.78
2023-02-11T14:54:44.920Z,44.79
2023-02-11T14:57:49.636Z,44.21
2023-02-11T15:01:06.523Z,44.47
2023-02-11T15:04:26.409Z,44.72
2023-02-11T15:07:29.222Z,45.33
2023-02-11T15:10:42.755Z,45.59
2023-02-11T15:13:48.144Z,46.63
2023-02-11T15:16:53.427Z,47.53
2023-02-11T15:19:58.239Z,47.07
2023-02-11T15:23:02.733Z,47.19
2023-02-11T15:26:12.751Z,48.14
2023-02-11T15:29:16.858Z,47.49
2023-02-11T15:32:19.827Z,47.41
2023-02-11T15:35:22.464Z,47.47
2023-02-11T15:38:25.647Z,48.15
2023-02-11T15:41:33.930Z,48.48
2023-02-11T15:44:38.143Z,48.70
2023-02-11T15:47:42.391Z,49.22
2023-02-11T15:50:54.405Z,49.62
2023-02-11T15:54:01.715Z,50.60
2023-02-11T15:57:07.558Z,51.30
2023-02-11T16:00:17.702Z,51.29
2023-02-11T16:03:22.324Z,51.63
2023-02-11T16:06:26.939Z,52.06
2023-02-11T16:09:34.149Z,52.60
2023-02-11T16:12:37.009Z,53.09
2023-02-11T16:15:47.623Z,53.82
2023-02-11T16:19:03.427Z,54.23
2023-02-11T16:22:09.188Z,55.47
2023-02-11T16:25:19.458Z,55.82
2023-02-11T16:28:22.360Z,55.93
2023-02-11T16:31:32.239Z,56.94
2023-02-11T16:34:35.613Z,57.93
2023-02-11T16:37:38.293Z,58.24
2023-02-11T16:40:42.220Z,58.74
2023-02-11T16:43:44.852Z,58.40
2023-02-11T16:46:50.737Z,57.94
2023-02-11T16:49:53.847Z,58.74
2023-02-11T16:52:56.692Z,57.85
2023-02-11T16:55:59.347Z,58.04
2023-02-11T16:59:02.620Z,58.11
2023-02-11T17:02:05.179Z,57.75
2023-02-11T17:05:15.401Z,57.55
2023-02-11T17:08:17.996Z,56.97
2023-02-11T17:11:20.600Z,56.71
2023-02-11T17:14:22.974Z,57.10
2023-02-11T17:17:25.681Z,57.36
2023-02-11T17:20:28.157Z,57.31
2023-02-11T17:23:30.820Z,57.28
2023-02-11T17:26:35.373Z,58.11
2023-02-11T17:29:38.554Z,59.02
2023-02-11T17:32:41.241Z,59.01
2023-02-11T17:35:44.270Z,58.52
2023-02-11T17:38:47.164Z,59.31
2023-02-11T17:41:49.787Z,59.44
2023-02-11T17:44:52.096Z,59.03
2023-02-11T17:47:54.987Z,58.16
2023-02-11T17:50:57.664Z,57.59
2023-02-11T17:54:01.565Z,58.05
2023-02-11T17:57:05.326Z,58.17
2023-02-11T18:00:10.567Z,58.00
2023-02-11T18:03:15.304Z,58.80
2023-02-11T18:06:19.390Z,58.57
2023-02-11T18:09:21.816Z,58.79
2023-02-11T18:12:27.441Z,59.32
2023-02-11T18:15:30.067Z,59.60
2023-02-11T18:18:32.758Z,60.54
2023-02-11T18:21:37.619Z,60.70
2023-02-11T18:24:41.002Z,60.43
2023-02-11T18:27:43.652Z,61.28
2023-02-11T18:30:46.471Z,60.60
2023-02-11T18:33:49.593Z,61.11
2023-02-11T18:36:52.520Z,60.83
2023-02-11T18:39:55.814Z,61.35
2023-02-11T18:42:58.506Z,61.21
2023-02-11T18:46:01.771Z,60.65
2023-02-11T18:49:05.074Z,60.99
2023-02-11T18:52:07.643Z,61.35
2023-02-11T18:55:10.839Z,61.72
2023-02-11T18:58:13.324Z,60.81
2023-02-11T19:01:17.922Z,60.16
2023-02-11T19:04:23.238Z,59.98
2023-02-11T19:07:26.236Z,60.52
2023-02-11T19:10:30.574Z,59.60
2023-02-11T19:13:34.021Z,59.96
2023-02-11T19:16:40.730Z,60.61
2023-02-11T19:19:43.675Z,61.12
2023-02-11T19:22:46.339Z,61.69
2023-02-11T19:25:49.388Z,61.91
2023-02-11T19:28:52.342Z,61.81
2023-02-11T19:31:55.301Z,62.31
2023-02-11T19:34:58.120Z,61.77
2023-02-11T19:38:01.300Z,61.89
2023-02-11T19:41:05.072Z,61.69
2023-02-11T19:44:08.420Z,61.28
2023-02-11T19:47:12.587Z,61.51
2023-02-11T19:50:15.481Z,61.66
2023-02-11T19:53:18.226Z,61.31
2023-02-11T19:56:22.386Z,61.50
2023-02-11T19:59:25.091Z,61.65
2023-02-11T20:02:29.210Z,62.02
2023-02-11T20:05:32.747Z,62.17
2023-02-11T20:08:36.637Z,62.85
2023-02-11T20:11:40.417Z,63.16
2023-02-11T20:14:43.052Z,63.65
2023-02-11T20:17:46.018Z,63.92
2023-02-11T20:20:48.748Z,64.13
2023-02-11T20:23:52.475Z,65.63
2023-02-11T20:26:58.217Z,66.28
2023-02-11T20:30:01.066Z,66.95
2023-02-11T20:33:03.762Z,66.82
2023-02-11T20:36:08.321Z,67.41
2023-02-11T20:39:11.621Z,67.47
2023-02-11T20:42:15.073Z,67.35
2023-02-11T20:45:17.694Z,67.32
2023-02-11T20:48:20.494Z,67.99
2023-02-11T20:51:24.440Z,68.15
2023-02-11T20:54:27.260Z,68.37
2023-02-11T20:57:29.615Z,69.19
2023-02-11T21:00:33.691Z,70.45
2023-02-11T21:03:36.369Z,70.49
2023-02-11T21:06:42.283Z,72.12
2023-02-11T21:09:44.865Z,73.62
2023-02-11T21:12:49.849Z,73.85
2023-02-11T21:15:56.374Z,74.90
2023-02-11T21:19:00.670Z,75.71
2023-02-11T21:22:02.972Z,77.39
2023-02-11T21:25:06.240Z,77.03
2023-02-11T21:28:08.641Z,77.40
2023-02-11T21:31:21.753Z,77.30
2023-02-11T21:34:24.547Z,77.92
2023-02-11T21:37:27.451Z,78.66
2023-02-11T21:40:30.265Z,78.84
2023-02-11T21:43:33.427Z,79.52
2023-02-11T21:46:36.071Z,79.67
2023-02-11T21:49:39.193Z,80.26
2023-02-11T21:52:41.659Z,80.75
2023-02-11T21:55:44.498Z,82.13
2023-02-11T21:58:47.307Z,82.89
2023-02-11T22:01:50.299Z,84.04
2023-02-11T22:04:52.966Z,84.98
2023-02-11T22:07:55.598Z,85.91
2023-02-11T22:11:08.908Z,86.50
2023-02-11T22:14:11.449Z,87.37
2023-02-11T22:17:14.377Z,88.17
2023-02-11T22:20:16.867Z,88.73
2023-02-11T22:23:19.512Z,89.17
2023-02-11T22:26:22.786Z,90.03
2023-02-11T22:29:25.392Z,91.98
2023-02-11T22:32:27.723Z,92.18
2023-02-11T22:35:30.724Z,91.92
2023-02-11T22:38:33.919Z,91.77
2023-02-11T22:41:38.379Z,93.34
2023-02-11T22:44:40.752Z,93.39
2023-02-11T22:47:43.433Z,94.65
2023-02-11T22:50:45.837Z,96.64
2023-02-11T22:53:59.175Z,97.51
2023-02-11T22:57:01.582Z,98.97
2023-02-11T23:00:09.773Z,100.00
2023-02-11T23:03:12.884Z,100.00
2023-02-11T23:06:15.486Z,100.00
2023-02-11T23:09:18.205Z,100.00
2023-02-11T23:12:20.787Z,100.00
2023-02-11T23:15:23.171Z,100.00
2023-02-11T23:18:25.874Z,100.00
2023-02-11T23:21:30.260Z,100.00
2023-02-11T23:24:33.048Z,100.00
2023-02-11T23:27:35.492Z,100.00
2023-02-11T23:30:38.646Z,100.00
2023-02-11T23:33:41.055Z,100.00
2023-02-11T23:36:44.377Z,100.00
2023-02-11T23:39:46.713Z,100.00
2023-02-11T23:42:50.010Z,100.00
2023-02-11T23:45:52.668Z,100.00
2023-02-11T23:48:55.624Z,100.00
2023-02-11T23:51:58.062Z,100.00
2023-02-11T23:55:00.679Z,100.00
2023-02-11T23:58:03.075Z,100.00
